Time;durP1;ratioP1;P1;durP2;ratioP2;P2;SDS_P1;SDS_P2;PMS_P1;PMS_P2;Temp;Humidity;BMP_temperature;BMP_pressure;BME280_temperature;BME280_humidity;BME280_pressure;Samples;Min_cycle;Max_cycle;Signal;HPM_P1;HPM_P2
2023/12/26 00:00:40;;;;;;;0.30;0.30;;;12.70;99.90;;;;;;5007647;28;20034;-58
2023/12/26 00:03:06;;;;;;;2.08;0.30;;;12.60;99.90;;;;;;5010607;28;20022;-58
2023/12/26 00:05:35;;;;;;;0.50;0.40;;;12.60;99.90;;;;;;5011893;28;20105;-58
2023/12/26 00:08:03;;;;;;;0.15;0.15;;;12.60;99.90;;;;;;5007664;28;20022;-57
2023/12/26 00:10:29;;;;;;;1.25;0.30;;;12.60;99.90;;;;;;5010306;28;20124;-57
2023/12/26 00:12:54;;;;;;;0.17;0.17;;;12.60;99.90;;;;;;5004632;28;20033;-56
2023/12/26 00:15:20;;;;;;;0.20;0.20;;;12.60;99.90;;;;;;5012064;28;20547;-57
2023/12/26 00:17:45;;;;;;;0.20;0.20;;;12.60;99.90;;;;;;5009957;28;20044;-58
2023/12/26 00:20:12;;;;;;;0.45;0.22;;;12.60;99.90;;;;;;5007953;28;20038;-58
2023/12/26 00:22:37;;;;;;;0.38;0.38;;;12.50;99.90;;;;;;5009739;28;20033;-56
2023/12/26 00:25:03;;;;;;;1.33;0.30;;;12.50;99.90;;;;;;5010847;28;20503;-57
2023/12/26 00:27:29;;;;;;;0.28;0.20;;;12.50;99.90;;;;;;5006401;28;20029;-57
2023/12/26 00:29:54;;;;;;;0.20;0.20;;;12.50;99.90;;;;;;5007201;28;20036;-56
2023/12/26 00:32:20;;;;;;;1.75;0.35;;;12.40;99.90;;;;;;5004221;28;20041;-57
2023/12/26 00:34:46;;;;;;;2.60;0.20;;;12.40;99.90;;;;;;5012374;28;20022;-58
2023/12/26 00:37:11;;;;;;;0.25;0.25;;;12.40;99.90;;;;;;5012873;28;20030;-56
2023/12/26 00:39:37;;;;;;;0.52;0.30;;;12.40;99.90;;;;;;5010026;28;20069;-57
2023/12/26 00:42:02;;;;;;;1.92;0.30;;;12.40;99.90;;;;;;5006678;28;20029;-56
2023/12/26 00:44:28;;;;;;;1.63;0.43;;;12.40;99.90;;;;;;5011302;28;20079;-55
2023/12/26 00:46:54;;;;;;;7.68;0.57;;;12.30;99.90;;;;;;5012634;28;20025;-57
2023/12/26 00:49:19;;;;;;;2.67;0.50;;;12.40;99.90;;;;;;5011234;28;20041;-58
2023/12/26 00:51:45;;;;;;;0.30;0.30;;;12.30;99.90;;;;;;5012251;28;20068;-57
2023/12/26 00:54:10;;;;;;;0.30;0.30;;;12.30;99.90;;;;;;5009556;28;20377;-58
2023/12/26 00:56:36;;;;;;;0.40;0.25;;;12.20;99.90;;;;;;5009790;28;20050;-56
2023/12/26 00:59:01;;;;;;;0.35;0.30;;;12.20;99.90;;;;;;5010183;28;20030;-58
2023/12/26 01:01:27;;;;;;;1.48;0.45;;;12.10;99.90;;;;;;5010567;28;20037;-58
2023/12/26 01:03:52;;;;;;;1.77;0.40;;;12.10;99.90;;;;;;5005779;28;20101;-58
2023/12/26 01:06:18;;;;;;;0.30;0.30;;;12.10;99.90;;;;;;5007578;28;20101;-57
2023/12/26 01:08:43;;;;;;;1.48;0.47;;;12.10;99.90;;;;;;5006892;28;20050;-58
2023/12/26 01:11:09;;;;;;;0.60;0.32;;;12.10;99.90;;;;;;5001549;28;20033;-55
2023/12/26 01:13:34;;;;;;;6.93;0.52;;;12.10;99.90;;;;;;5007458;28;20534;-56
2023/12/26 01:16:02;;;;;;;2.08;0.30;;;12.10;99.90;;;;;;5005709;28;20030;-56
2023/12/26 01:18:29;;;;;;;1.33;0.60;;;12.10;99.90;;;;;;5011005;28;20030;-55
2023/12/26 01:20:54;;;;;;;4.05;0.50;;;12.10;99.90;;;;;;5006384;28;20034;-58
2023/12/26 01:23:19;;;;;;;3.13;0.40;;;12.10;99.90;;;;;;5009426;28;20033;-57
2023/12/26 01:25:45;;;;;;;1.80;0.32;;;12.00;99.90;;;;;;5010952;28;20034;-52
2023/12/26 01:28:10;;;;;;;1.55;0.52;;;12.00;99.90;;;;;;5006427;28;20026;-57
2023/12/26 01:30:38;;;;;;;3.47;0.30;;;12.10;99.90;;;;;;5006155;28;20030;-54
2023/12/26 01:33:04;;;;;;;1.40;0.60;;;12.00;99.90;;;;;;5009287;28;20472;-57
2023/12/26 01:35:30;;;;;;;0.50;0.40;;;12.00;99.90;;;;;;5008402;28;20108;-57
2023/12/26 01:37:56;;;;;;;5.88;0.40;;;12.00;99.90;;;;;;5010569;28;20038;-58
2023/12/26 01:40:22;;;;;;;0.43;0.40;;;12.00;99.90;;;;;;5009604;28;20399;-56
2023/12/26 01:42:47;;;;;;;1.02;0.40;;;12.00;99.90;;;;;;5008545;28;20026;-57
2023/12/26 01:45:14;;;;;;;1.20;0.38;;;12.00;99.90;;;;;;5009824;28;20408;-56
2023/12/26 01:47:40;;;;;;;0.40;0.40;;;12.00;99.90;;;;;;5011205;28;20225;-57
2023/12/26 01:50:07;;;;;;;1.17;0.50;;;12.00;99.90;;;;;;5005739;28;20133;-57
2023/12/26 01:52:35;;;;;;;2.40;0.43;;;11.90;99.90;;;;;;5009900;28;20030;-57
2023/12/26 01:55:01;;;;;;;3.75;0.50;;;12.00;99.90;;;;;;5007809;28;20030;-57
2023/12/26 01:57:28;;;;;;;1.10;0.40;;;12.00;99.90;;;;;;5010415;28;20033;-57
2023/12/26 01:59:54;;;;;;;0.45;0.40;;;12.00;99.90;;;;;;5008448;28;20030;-57
2023/12/26 02:02:22;;;;;;;3.33;0.50;;;11.90;99.90;;;;;;5001367;28;20105;-54
2023/12/26 02:04:47;;;;;;;2.45;0.30;;;11.90;99.90;;;;;;5008547;28;20184;-56
2023/12/26 02:07:13;;;;;;;1.67;0.30;;;11.90;99.90;;;;;;5010974;28;20105;-56
2023/12/26 02:09:39;;;;;;;2.78;0.40;;;11.90;99.90;;;;;;5006995;28;20112;-58
2023/12/26 02:12:04;;;;;;;2.33;0.35;;;11.90;99.90;;;;;;5003855;28;20033;-57
2023/12/26 02:14:30;;;;;;;3.60;0.30;;;11.90;99.90;;;;;;5007043;28;20037;-55
2023/12/26 02:17:00;;;;;;;0.85;0.40;;;11.90;99.90;;;;;;4999674;28;20027;-57
2023/12/26 02:19:25;;;;;;;0.95;0.40;;;11.80;99.90;;;;;;5009292;28;20022;-56
2023/12/26 02:21:51;;;;;;;1.33;0.47;;;11.80;99.90;;;;;;5004343;28;20508;-58
2023/12/26 02:24:16;;;;;;;1.80;0.40;;;11.80;99.90;;;;;;5009646;28;20040;-57
2023/12/26 02:26:42;;;;;;;0.32;0.22;;;11.80;99.90;;;;;;5006875;28;20038;-57
2023/12/26 02:29:09;;;;;;;0.52;0.40;;;11.80;99.90;;;;;;5004238;28;20109;-58
2023/12/26 02:31:36;;;;;;;3.30;0.40;;;11.80;99.90;;;;;;5009070;28;20036;-57
2023/12/26 02:34:01;;;;;;;1.55;0.30;;;11.70;99.90;;;;;;5008792;28;20110;-58
2023/12/26 02:36:27;;;;;;;0.75;0.50;;;11.60;99.90;;;;;;5010490;28;20101;-58
2023/12/26 02:38:53;;;;;;;1.55;0.30;;;11.60;99.90;;;;;;5001393;28;20046;-58
2023/12/26 02:41:19;;;;;;;1.30;0.52;;;11.60;99.90;;;;;;5009365;28;20105;-54
2023/12/26 02:43:44;;;;;;;0.32;0.30;;;11.60;99.90;;;;;;5006316;28;20097;-54
2023/12/26 02:46:10;;;;;;;1.08;0.50;;;11.60;99.90;;;;;;5006970;28;20125;-57
2023/12/26 02:48:35;;;;;;;0.40;0.22;;;11.50;99.90;;;;;;5002052;28;20032;-58
2023/12/26 02:51:02;;;;;;;0.68;0.25;;;11.50;99.90;;;;;;5005263;28;20030;-55
2023/12/26 02:53:28;;;;;;;0.98;0.30;;;11.50;99.90;;;;;;5008678;28;20039;-58
2023/12/26 02:55:53;;;;;;;2.42;0.85;;;11.50;99.90;;;;;;5006059;28;20022;-56
2023/12/26 02:58:20;;;;;;;0.30;0.30;;;11.40;99.90;;;;;;5004300;28;20036;-57
2023/12/26 03:00:46;;;;;;;1.65;0.38;;;11.50;99.90;;;;;;5007218;28;20034;-57
2023/12/26 03:03:11;;;;;;;0.63;0.30;;;11.40;99.90;;;;;;4998353;28;20027;-58
2023/12/26 03:05:37;;;;;;;0.38;0.20;;;11.40;99.90;;;;;;5004382;28;20026;-57
2023/12/26 03:08:03;;;;;;;1.70;0.30;;;11.30;99.90;;;;;;5005277;28;20046;-55
2023/12/26 03:10:28;;;;;;;3.70;0.40;;;11.30;99.90;;;;;;5006710;28;20036;-55
2023/12/26 03:12:54;;;;;;;0.70;0.40;;;11.30;99.90;;;;;;5007579;28;20534;-57
2023/12/26 03:15:19;;;;;;;2.67;0.50;;;11.20;99.90;;;;;;5004863;28;20030;-56
2023/12/26 03:17:45;;;;;;;0.75;0.30;;;11.20;99.90;;;;;;5003082;28;20030;-54
2023/12/26 03:20:11;;;;;;;1.08;0.50;;;11.10;99.90;;;;;;5009301;28;20026;-55
2023/12/26 03:22:39;;;;;;;0.43;0.30;;;11.10;99.90;;;;;;5007725;28;20030;-54
2023/12/26 03:25:06;;;;;;;0.57;0.50;;;11.10;99.90;;;;;;5009771;28;20022;-55
2023/12/26 03:27:31;;;;;;;0.38;0.30;;;11.00;99.90;;;;;;5003285;28;20104;-57
2023/12/26 03:29:57;;;;;;;1.95;0.30;;;11.00;99.90;;;;;;5006982;28;20600;-56
2023/12/26 03:32:22;;;;;;;1.75;0.50;;;11.00;99.90;;;;;;5006929;28;20075;-55
2023/12/26 03:34:48;;;;;;;0.35;0.30;;;11.00;99.90;;;;;;5006661;28;20064;-54
2023/12/26 03:37:13;;;;;;;0.57;0.30;;;10.90;99.90;;;;;;5004425;28;20022;-55
2023/12/26 03:39:41;;;;;;;6.05;0.60;;;10.90;99.90;;;;;;5007784;28;20492;-54
2023/12/26 03:42:06;;;;;;;1.58;0.40;;;10.80;99.90;;;;;;5001996;28;20342;-57
2023/12/26 03:44:32;;;;;;;0.35;0.32;;;10.90;99.90;;;;;;5008165;28;20393;-55
2023/12/26 03:46:57;;;;;;;0.88;0.30;;;10.80;99.90;;;;;;5008383;28;20022;-55
2023/12/26 03:49:23;;;;;;;3.75;0.40;;;10.80;99.90;;;;;;5008559;28;20383;-54
2023/12/26 03:51:48;;;;;;;2.40;0.55;;;10.90;99.90;;;;;;5006342;28;20110;-55
2023/12/26 03:54:15;;;;;;;1.08;0.40;;;10.90;99.90;;;;;;5003799;28;20030;-56
2023/12/26 03:56:40;;;;;;;1.33;0.40;;;10.80;99.90;;;;;;5004305;28;20026;-55
2023/12/26 03:59:07;;;;;;;0.55;0.30;;;10.80;99.90;;;;;;5008712;28;20404;-56
2023/12/26 04:01:33;;;;;;;0.60;0.25;;;10.80;99.90;;;;;;5005863;28;20107;-56
2023/12/26 04:03:59;;;;;;;1.08;0.35;;;10.90;99.90;;;;;;5008705;28;20457;-54
2023/12/26 04:06:24;;;;;;;0.82;0.40;;;10.90;99.90;;;;;;5004911;28;20113;-57
2023/12/26 04:08:50;;;;;;;0.75;0.45;;;10.90;99.90;;;;;;5005955;28;20052;-57
2023/12/26 04:11:15;;;;;;;1.65;0.40;;;11.00;99.90;;;;;;5003786;28;20030;-55
2023/12/26 04:13:41;;;;;;;0.40;0.35;;;11.00;99.90;;;;;;5007637;28;20544;-57
2023/12/26 04:16:07;;;;;;;1.48;0.32;;;11.00;99.90;;;;;;5006224;28;20037;-57
2023/12/26 04:18:33;;;;;;;0.28;0.28;;;11.00;99.90;;;;;;5003507;28;20480;-57
2023/12/26 04:20:58;;;;;;;0.55;0.30;;;11.00;99.90;;;;;;5002001;28;20033;-54
2023/12/26 04:23:24;;;;;;;0.55;0.30;;;11.00;99.90;;;;;;5007281;28;20014;-57
2023/12/26 04:25:49;;;;;;;0.30;0.30;;;11.00;99.90;;;;;;5003339;28;20096;-57
2023/12/26 04:28:15;;;;;;;0.52;0.52;;;11.00;99.90;;;;;;5007718;28;20026;-55
2023/12/26 04:30:41;;;;;;;0.75;0.43;;;11.00;99.90;;;;;;5007907;28;20088;-54
2023/12/26 04:33:07;;;;;;;0.43;0.43;;;11.00;99.90;;;;;;5009677;28;20503;-57
2023/12/26 04:35:33;;;;;;;0.52;0.40;;;11.00;99.90;;;;;;5006299;28;20053;-58
2023/12/26 04:37:59;;;;;;;2.78;0.30;;;10.90;99.90;;;;;;4986846;28;20026;-57
2023/12/26 04:40:25;;;;;;;0.30;0.30;;;11.00;99.90;;;;;;4991184;28;20037;-57
2023/12/26 04:42:51;;;;;;;1.50;0.30;;;11.00;99.90;;;;;;5005370;28;20464;-55
2023/12/26 04:45:17;;;;;;;0.55;0.40;;;11.00;99.90;;;;;;5010727;28;20034;-54
2023/12/26 04:47:42;;;;;;;1.10;0.22;;;11.00;99.90;;;;;;5012342;28;20109;-56
2023/12/26 04:50:08;;;;;;;0.40;0.30;;;11.00;99.90;;;;;;5012126;28;20062;-57
2023/12/26 04:52:34;;;;;;;1.98;0.43;;;11.00;99.90;;;;;;5009897;28;20044;-58
2023/12/26 04:54:59;;;;;;;0.40;0.30;;;11.10;99.90;;;;;;5011004;28;20026;-57
2023/12/26 04:57:26;;;;;;;0.88;0.30;;;11.10;99.90;;;;;;5009637;28;20076;-57
2023/12/26 04:59:51;;;;;;;1.10;0.30;;;11.10;99.90;;;;;;5009971;28;20099;-55
2023/12/26 05:02:17;;;;;;;1.05;0.50;;;11.10;99.90;;;;;;5007883;28;20500;-56
2023/12/26 05:04:42;;;;;;;2.20;0.50;;;11.10;99.90;;;;;;5011504;28;20026;-57
2023/12/26 05:07:08;;;;;;;1.75;0.57;;;11.00;99.90;;;;;;5005601;28;20030;-57
2023/12/26 05:09:34;;;;;;;1.90;0.47;;;11.00;99.90;;;;;;5009313;28;20018;-56
2023/12/26 05:12:00;;;;;;;0.80;0.40;;;11.00;99.90;;;;;;5006876;28;20018;-55
2023/12/26 05:14:25;;;;;;;1.77;0.50;;;10.90;99.90;;;;;;5011639;28;20026;-57
2023/12/26 05:16:51;;;;;;;2.58;0.47;;;10.90;99.90;;;;;;5008148;28;20030;-54
2023/12/26 05:19:17;;;;;;;4.18;0.70;;;11.00;99.90;;;;;;5006349;28;20019;-56
2023/12/26 05:21:43;;;;;;;1.65;0.50;;;10.90;99.90;;;;;;5009527;28;20022;-57
2023/12/26 05:24:09;;;;;;;2.08;0.52;;;10.90;99.90;;;;;;5010772;28;20022;-56
2023/12/26 05:26:42;;;;;;;2.90;0.82;;;10.90;99.90;;;;;;5008912;28;20579;-54
2023/12/26 05:29:12;;;;;;;2.10;0.63;;;10.90;99.90;;;;;;5010939;28;20029;-54
2023/12/26 05:31:38;;;;;;;1.88;0.60;;;10.90;99.90;;;;;;5003464;28;20136;-54
2023/12/26 05:34:05;;;;;;;3.92;0.88;;;10.80;99.90;;;;;;5011323;28;20133;-56
2023/12/26 05:36:31;;;;;;;1.52;0.50;;;10.80;99.90;;;;;;5010055;28;20536;-58
2023/12/26 05:38:57;;;;;;;2.35;1.50;;;10.80;99.90;;;;;;5006284;28;20121;-58
2023/12/26 05:41:23;;;;;;;3.42;0.80;;;10.80;99.90;;;;;;5010634;28;20468;-57
2023/12/26 05:43:49;;;;;;;0.75;0.63;;;10.80;99.90;;;;;;5011086;28;20029;-56
2023/12/26 05:46:14;;;;;;;2.92;0.90;;;10.80;99.90;;;;;;5010771;28;20209;-56
2023/12/26 05:48:43;;;;;;;2.95;0.57;;;10.80;99.90;;;;;;5004384;28;20030;-54
2023/12/26 05:51:09;;;;;;;5.53;0.65;;;10.90;99.90;;;;;;5009013;28;20042;-56
2023/12/26 05:53:34;;;;;;;1.58;0.60;;;10.90;99.90;;;;;;5010030;28;20034;-57
2023/12/26 05:56:00;;;;;;;4.18;0.95;;;10.90;99.90;;;;;;5007753;28;20076;-54
2023/12/26 05:58:25;;;;;;;5.40;1.27;;;10.90;99.90;;;;;;5010409;28;20030;-54
2023/12/26 06:00:52;;;;;;;8.20;0.90;;;10.90;99.90;;;;;;5010737;28;20026;-55
2023/12/26 06:03:17;;;;;;;2.08;0.82;;;10.90;99.90;;;;;;5010326;28;20037;-54
2023/12/26 06:05:43;;;;;;;0.88;0.73;;;10.90;99.90;;;;;;5008517;28;20484;-57
2023/12/26 06:08:08;;;;;;;4.40;0.80;;;10.90;99.90;;;;;;5009331;28;20110;-56
2023/12/26 06:10:34;;;;;;;3.10;0.80;;;10.90;99.90;;;;;;5009886;28;20190;-56
2023/12/26 06:12:59;;;;;;;7.97;1.55;;;10.90;99.90;;;;;;5010482;28;20041;-55
2023/12/26 06:15:25;;;;;;;8.45;0.98;;;10.90;99.90;;;;;;5008997;28;20052;-56
2023/12/26 06:17:50;;;;;;;2.80;0.70;;;10.90;99.90;;;;;;4992836;28;20042;-56
2023/12/26 06:20:16;;;;;;;5.90;0.90;;;11.00;99.90;;;;;;5006830;28;20026;-57
2023/12/26 06:22:42;;;;;;;5.03;1.00;;;11.00;99.90;;;;;;4991716;28;20026;-54
2023/12/26 06:25:08;;;;;;;2.67;1.35;;;11.00;99.90;;;;;;5006660;28;20031;-57
2023/12/26 06:27:33;;;;;;;8.50;1.30;;;11.00;99.90;;;;;;5001832;28;20492;-54
2023/12/26 06:29:59;;;;;;;6.28;0.90;;;11.00;99.90;;;;;;5010529;28;20030;-55
2023/12/26 06:32:25;;;;;;;5.45;1.02;;;11.10;99.90;;;;;;5010232;28;20567;-56
2023/12/26 06:34:51;;;;;;;4.22;1.00;;;11.00;99.90;;;;;;5008763;28;20152;-53
2023/12/26 06:37:16;;;;;;;5.75;1.45;;;11.10;99.90;;;;;;5006011;28;20101;-56
2023/12/26 06:39:43;;;;;;;6.78;1.17;;;11.00;99.90;;;;;;5008262;28;20030;-56
2023/12/26 06:42:10;;;;;;;3.20;1.05;;;11.00;99.90;;;;;;5003929;28;20408;-57
2023/12/26 06:44:35;;;;;;;7.38;1.40;;;11.10;99.90;;;;;;5008857;28;20370;-57
2023/12/26 06:47:01;;;;;;;3.95;1.20;;;11.00;99.90;;;;;;5006218;28;20444;-56
2023/12/26 06:49:26;;;;;;;5.60;1.05;;;11.10;99.90;;;;;;5005589;28;20030;-57
2023/12/26 06:51:52;;;;;;;8.25;1.52;;;11.10;99.90;;;;;;5004808;28;20041;-54
2023/12/26 06:54:17;;;;;;;1.92;0.90;;;11.10;99.90;;;;;;5006461;28;20053;-53
2023/12/26 06:56:43;;;;;;;9.63;1.40;;;11.10;99.90;;;;;;5006912;28;20045;-58
2023/12/26 06:59:08;;;;;;;9.13;1.45;;;11.10;99.90;;;;;;5005713;28;20046;-57
2023/12/26 07:01:34;;;;;;;3.72;0.90;;;11.20;99.90;;;;;;5006238;28;20081;-54
2023/12/26 07:04:00;;;;;;;3.78;1.23;;;11.20;99.90;;;;;;5003435;28;20022;-57
2023/12/26 07:06:27;;;;;;;3.03;1.35;;;11.10;99.90;;;;;;5003882;28;20103;-57
2023/12/26 07:08:52;;;;;;;8.05;1.15;;;11.10;99.90;;;;;;5006079;28;20117;-57
2023/12/26 07:11:18;;;;;;;3.28;1.13;;;11.10;99.90;;;;;;5007070;28;20109;-55
2023/12/26 07:13:44;;;;;;;13.35;1.67;;;11.10;99.90;;;;;;5008179;28;20033;-57
2023/12/26 07:16:09;;;;;;;7.18;1.50;;;11.10;99.90;;;;;;5010044;28;20376;-55
2023/12/26 07:18:35;;;;;;;2.53;0.95;;;11.10;99.90;;;;;;5009348;28;20026;-55
2023/12/26 07:21:00;;;;;;;7.38;1.50;;;11.10;99.90;;;;;;5008565;28;20030;-54
2023/12/26 07:23:26;;;;;;;5.80;1.70;;;11.10;99.90;;;;;;5007159;28;20045;-56
2023/12/26 07:25:51;;;;;;;7.50;1.60;;;11.10;99.90;;;;;;5008586;28;20045;-54
2023/12/26 07:28:17;;;;;;;7.25;1.30;;;11.10;99.90;;;;;;5005826;28;20455;-55
2023/12/26 07:30:44;;;;;;;3.88;1.30;;;11.10;99.90;;;;;;5005446;28;20546;-55
2023/12/26 07:33:09;;;;;;;6.40;1.48;;;11.10;99.90;;;;;;5007100;28;20030;-56
2023/12/26 07:35:37;;;;;;;9.05;1.50;;;11.10;99.90;;;;;;5009151;28;20045;-55
2023/12/26 07:38:04;;;;;;;3.83;1.25;;;11.10;99.90;;;;;;5004506;28;20026;-57
2023/12/26 07:40:31;;;;;;;6.60;1.60;;;11.30;99.90;;;;;;5004457;28;20037;-57
2023/12/26 07:42:57;;;;;;;4.93;1.40;;;11.20;99.90;;;;;;5006492;28;20401;-58
2023/12/26 07:45:24;;;;;;;6.32;1.40;;;11.20;99.90;;;;;;5008928;28;20026;-55
2023/12/26 07:47:53;;;;;;;8.27;1.83;;;11.10;99.90;;;;;;5007055;28;20032;-58
2023/12/26 07:50:18;;;;;;;11.40;1.63;;;11.10;99.90;;;;;;5004122;28;20030;-57
2023/12/26 07:52:44;;;;;;;11.00;1.88;;;11.10;99.90;;;;;;5002956;28;20061;-55
2023/12/26 07:55:11;;;;;;;5.22;1.10;;;11.10;99.90;;;;;;5004366;28;20041;-58
2023/12/26 07:57:37;;;;;;;3.05;1.10;;;11.10;99.90;;;;;;4999344;28;20036;-58
2023/12/26 08:00:03;;;;;;;5.78;1.10;;;11.10;99.90;;;;;;5001096;28;20038;-55
2023/12/26 08:02:29;;;;;;;8.18;1.30;;;11.10;99.90;;;;;;5007320;28;20010;-58
2023/12/26 08:04:54;;;;;;;6.70;1.60;;;11.10;99.90;;;;;;5004448;28;20033;-57
2023/12/26 08:07:20;;;;;;;6.55;1.80;;;11.10;99.90;;;;;;5007237;28;20484;-57
2023/12/26 08:09:45;;;;;;;6.88;1.42;;;11.10;99.90;;;;;;5004667;28;20117;-58
2023/12/26 08:12:11;;;;;;;6.20;1.67;;;11.10;99.90;;;;;;5006731;28;20019;-55
2023/12/26 08:14:36;;;;;;;15.95;2.78;;;11.10;99.90;;;;;;5006631;28;20038;-56
2023/12/26 08:17:02;;;;;;;7.50;1.80;;;11.10;99.90;;;;;;5005945;28;20038;-56
2023/12/26 08:19:29;;;;;;;3.80;1.70;;;11.10;99.90;;;;;;5011193;28;20444;-56
2023/12/26 08:21:55;;;;;;;5.65;1.65;;;11.10;99.90;;;;;;5011059;28;20021;-57
2023/12/26 08:24:21;;;;;;;11.60;2.97;;;11.10;99.90;;;;;;5009551;28;20080;-58
2023/12/26 08:26:52;;;;;;;9.05;2.33;;;11.10;99.90;;;;;;5007833;28;20038;-58
2023/12/26 08:29:17;;;;;;;12.20;2.00;;;11.10;99.90;;;;;;5004619;28;20042;-56
2023/12/26 08:31:43;;;;;;;7.50;1.95;;;11.10;99.90;;;;;;5007404;28;20488;-55
2023/12/26 08:34:09;;;;;;;9.13;1.88;;;11.10;99.90;;;;;;5010200;28;20487;-55
2023/12/26 08:36:34;;;;;;;5.18;1.65;;;11.20;99.90;;;;;;5010385;28;20044;-57
2023/12/26 08:39:00;;;;;;;11.25;2.45;;;11.20;99.90;;;;;;5005693;28;20547;-57
2023/12/26 08:41:25;;;;;;;16.15;1.90;;;11.20;99.90;;;;;;5011922;28;20029;-56
2023/12/26 08:43:51;;;;;;;10.68;1.67;;;11.20;99.90;;;;;;5004387;28;20033;-57
2023/12/26 08:46:16;;;;;;;7.70;1.50;;;11.20;99.90;;;;;;5006491;28;20028;-56
2023/12/26 08:48:42;;;;;;;5.65;1.63;;;11.20;99.90;;;;;;5006875;28;20029;-57
2023/12/26 08:51:08;;;;;;;5.93;1.45;;;11.20;99.90;;;;;;5005431;28;20463;-57
2023/12/26 08:53:33;;;;;;;11.52;1.95;;;11.20;99.90;;;;;;5009343;28;20025;-55
2023/12/26 08:56:03;;;;;;;16.98;1.52;;;11.20;99.90;;;;;;5006856;28;20022;-54
2023/12/26 08:58:31;;;;;;;8.20;1.50;;;11.30;99.90;;;;;;5007195;28;20089;-53
2023/12/26 09:00:58;;;;;;;5.35;1.23;;;11.30;99.90;;;;;;5004672;28;20392;-53
2023/12/26 09:03:24;;;;;;;6.75;1.70;;;11.30;99.90;;;;;;5006775;28;20036;-52
2023/12/26 09:05:49;;;;;;;5.90;1.27;;;11.30;99.90;;;;;;5008724;28;20460;-52
2023/12/26 09:08:15;;;;;;;9.48;1.63;;;11.30;99.90;;;;;;5005630;28;20021;-56
2023/12/26 09:10:40;;;;;;;8.68;1.95;;;11.30;99.90;;;;;;5009829;28;20035;-52
2023/12/26 09:13:06;;;;;;;9.52;2.13;;;11.30;99.90;;;;;;5008968;28;20097;-55
2023/12/26 09:15:32;;;;;;;9.02;2.08;;;11.30;99.90;;;;;;5008178;28;21184;-53
2023/12/26 09:17:57;;;;;;;9.55;1.90;;;11.30;99.90;;;;;;5009433;28;20028;-53
2023/12/26 09:20:23;;;;;;;8.80;1.90;;;11.30;99.90;;;;;;5007719;28;20030;-55
2023/12/26 09:22:50;;;;;;;5.10;1.17;;;11.30;99.90;;;;;;5005723;28;20464;-53
2023/12/26 09:25:15;;;;;;;8.10;1.50;;;11.30;99.90;;;;;;5006660;28;20077;-56
2023/12/26 09:27:42;;;;;;;8.43;1.88;;;11.30;99.90;;;;;;5005391;28;20050;-53
2023/12/26 09:30:09;;;;;;;10.95;3.00;;;11.30;99.90;;;;;;5002976;28;20037;-53
2023/12/26 09:32:34;;;;;;;5.97;1.95;;;11.30;99.90;;;;;;5003803;28;20034;-55
2023/12/26 09:35:00;;;;;;;9.07;1.88;;;11.30;99.90;;;;;;5005373;28;20038;-53
2023/12/26 09:37:25;;;;;;;9.60;1.88;;;11.30;99.90;;;;;;5004467;28;20400;-53
2023/12/26 09:39:51;;;;;;;6.50;1.80;;;11.30;99.90;;;;;;5005065;28;20086;-53
2023/12/26 09:42:22;;;;;;;9.05;2.00;;;11.30;99.90;;;;;;5003751;28;20022;-54
2023/12/26 09:44:49;;;;;;;4.90;1.70;;;11.30;99.90;;;;;;5003882;28;20022;-53
2023/12/26 09:47:16;;;;;;;9.98;2.03;;;11.30;99.90;;;;;;4990846;28;20022;-53
2023/12/26 09:49:43;;;;;;;8.52;1.83;;;11.30;99.90;;;;;;5005193;28;20022;-54
2023/12/26 09:52:09;;;;;;;7.88;1.65;;;11.30;99.90;;;;;;5007901;28;20042;-53
2023/12/26 09:54:38;;;;;;;12.20;1.90;;;11.40;99.90;;;;;;5006323;28;20053;-54
2023/12/26 09:57:05;;;;;;;8.35;1.63;;;11.40;99.90;;;;;;5004958;28;20026;-55
2023/12/26 09:59:34;;;;;;;7.85;2.00;;;11.40;99.90;;;;;;5008822;28;20373;-54
2023/12/26 10:02:00;;;;;;;13.85;2.60;;;11.40;99.90;;;;;;5005827;28;20228;-56
2023/12/26 10:04:26;;;;;;;13.75;2.00;;;11.50;99.90;;;;;;5009815;28;20034;-55
2023/12/26 10:06:52;;;;;;;16.92;2.45;;;11.50;99.90;;;;;;5006696;28;20304;-54
2023/12/26 10:09:19;;;;;;;11.98;1.95;;;11.60;99.90;;;;;;5004145;28;20678;-54
2023/12/26 10:11:45;;;;;;;13.23;1.60;;;11.60;99.90;;;;;;5010869;28;20096;-56
2023/12/26 10:14:10;;;;;;;11.35;2.17;;;11.60;99.90;;;;;;5005973;28;20028;-54
2023/12/26 10:16:36;;;;;;;10.82;1.52;;;11.60;99.90;;;;;;5010264;28;20081;-54
2023/12/26 10:19:02;;;;;;;8.25;1.92;;;11.70;99.90;;;;;;5005200;28;20396;-56
2023/12/26 10:21:28;;;;;;;7.68;1.25;;;11.70;99.90;;;;;;5007079;28;20030;-54
2023/12/26 10:23:56;;;;;;;15.57;1.70;;;11.80;99.90;;;;;;5006452;28;20549;-53
2023/12/26 10:26:22;;;;;;;3.00;1.27;;;11.90;99.90;;;;;;5006490;28;20026;-53
2023/12/26 10:28:50;;;;;;;8.52;1.30;;;12.00;99.90;;;;;;5008063;28;20041;-53
2023/12/26 10:31:19;;;;;;;4.43;0.95;;;12.00;99.90;;;;;;5007351;28;20026;-54
2023/12/26 10:33:45;;;;;;;9.30;1.15;;;12.00;99.90;;;;;;5005922;28;20112;-53
2023/12/26 10:36:11;;;;;;;11.35;1.00;;;12.10;99.90;;;;;;5006628;28;20125;-53
2023/12/26 10:38:40;;;;;;;6.57;1.23;;;12.20;99.90;;;;;;5003962;28;20045;-54
2023/12/26 10:41:25;;;;;;;8.60;1.20;;;12.20;99.90;;;;;;5004476;28;20029;-54
2023/12/26 10:43:56;;;;;;;6.60;1.23;;;12.10;99.90;;;;;;5007356;28;20542;-52
2023/12/26 10:46:22;;;;;;;12.60;1.65;;;12.00;99.90;;;;;;5004681;28;20030;-53
2023/12/26 10:48:50;;;;;;;11.80;1.75;;;11.90;99.90;;;;;;5006921;28;20496;-54
2023/12/26 10:51:20;;;;;;;7.00;1.52;;;11.80;99.90;;;;;;5005408;28;20041;-54
2023/12/26 10:53:52;;;;;;;5.40;1.17;;;11.90;99.90;;;;;;5003922;28;20025;-54
2023/12/26 10:56:19;;;;;;;7.15;1.63;;;11.90;99.90;;;;;;5004547;28;20030;-53
2023/12/26 10:58:46;;;;;;;7.93;1.55;;;11.90;99.90;;;;;;4988296;28;20057;-54
2023/12/26 11:01:11;;;;;;;8.18;1.30;;;11.90;99.90;;;;;;5003380;28;20111;-53
2023/12/26 11:03:37;;;;;;;13.77;1.70;;;11.80;99.90;;;;;;5005873;28;20038;-55
2023/12/26 11:06:03;;;;;;;8.82;1.60;;;11.90;99.90;;;;;;5006616;28;20041;-53
2023/12/26 11:08:29;;;;;;;7.22;1.33;;;11.80;99.90;;;;;;4988185;28;20505;-53
2023/12/26 11:10:55;;;;;;;7.05;2.65;;;11.80;99.90;;;;;;5007827;28;20040;-54
2023/12/26 11:13:20;;;;;;;10.27;1.27;;;11.80;99.90;;;;;;5003113;28;20037;-53
2023/12/26 11:15:46;;;;;;;10.60;1.73;;;11.70;99.90;;;;;;5000877;28;20049;-54
2023/12/26 11:18:12;;;;;;;15.50;1.58;;;11.70;99.90;;;;;;4999392;28;20038;-57
2023/12/26 11:20:38;;;;;;;17.85;1.45;;;11.60;99.90;;;;;;5007021;28;20307;-54
2023/12/26 11:23:04;;;;;;;16.05;1.60;;;11.60;99.90;;;;;;5003904;28;20041;-54
2023/12/26 11:25:29;;;;;;;11.68;1.48;;;11.50;99.90;;;;;;5006114;28;20025;-52
2023/12/26 11:27:56;;;;;;;13.13;1.30;;;11.50;99.90;;;;;;5007834;28;20511;-54
2023/12/26 11:30:22;;;;;;;7.47;1.90;;;11.50;99.90;;;;;;5004726;28;20488;-52
2023/12/26 11:32:47;;;;;;;8.90;1.40;;;11.40;99.90;;;;;;5003148;28;20044;-53
2023/12/26 11:35:13;;;;;;;9.75;1.33;;;11.40;99.90;;;;;;5006011;28;20034;-53
2023/12/26 11:37:39;;;;;;;17.95;1.48;;;11.30;99.90;;;;;;5012793;28;20041;-55
2023/12/26 11:40:04;;;;;;;11.05;1.27;;;11.20;99.90;;;;;;4999785;28;20045;-54
2023/12/26 11:42:30;;;;;;;9.27;1.15;;;11.20;99.90;;;;;;5009149;28;20030;-55
2023/12/26 11:44:55;;;;;;;13.50;1.30;;;11.20;99.90;;;;;;4998416;28;20031;-53
2023/12/26 11:47:21;;;;;;;7.72;2.40;;;11.20;99.90;;;;;;5004366;28;20085;-54
2023/12/26 11:49:46;;;;;;;14.52;1.88;;;11.10;99.90;;;;;;5009052;28;20028;-53
2023/12/26 11:52:12;;;;;;;6.13;1.20;;;11.20;99.90;;;;;;5016697;28;20107;-53
2023/12/26 11:54:38;;;;;;;11.50;2.00;;;11.20;99.90;;;;;;5006820;28;21681;-54
2023/12/26 11:57:03;;;;;;;20.65;1.88;;;11.20;99.90;;;;;;5004017;28;20091;-55
2023/12/26 11:59:29;;;;;;;9.88;2.10;;;11.30;99.90;;;;;;5005573;28;20038;-54
2023/12/26 12:01:54;;;;;;;17.10;1.75;;;11.30;99.90;;;;;;5009398;28;20489;-53
2023/12/26 12:04:20;;;;;;;8.10;1.25;;;11.40;99.90;;;;;;5005671;28;20030;-56
2023/12/26 12:07:11;;;;;;;8.25;1.55;;;11.40;99.90;;;;;;5007925;28;20377;-53
2023/12/26 12:09:37;;;;;;;14.43;1.92;;;11.30;99.90;;;;;;5010183;28;20400;-54
2023/12/26 12:12:03;;;;;;;13.05;2.75;;;11.30;99.90;;;;;;5006032;28;20032;-53
2023/12/26 12:14:29;;;;;;;11.00;1.52;;;11.30;99.90;;;;;;5005000;28;20034;-53
2023/12/26 12:16:54;;;;;;;5.22;1.55;;;11.10;99.90;;;;;;5013046;28;20036;-53
2023/12/26 12:19:20;;;;;;;6.30;1.40;;;11.20;99.90;;;;;;5007841;28;20104;-53
2023/12/26 12:21:46;;;;;;;16.05;1.98;;;11.30;99.90;;;;;;5010415;28;20072;-52
2023/12/26 12:24:18;;;;;;;10.02;1.50;;;11.30;99.90;;;;;;5005395;28;20121;-52
2023/12/26 12:27:02;;;;;;;11.85;2.30;;;11.50;99.90;;;;;;5013413;28;20504;-57
2023/12/26 12:29:57;;;;;;;12.68;1.60;;;11.60;99.90;;;;;;5015081;28;20084;-57
2023/12/26 12:32:30;;;;;;;20.08;1.98;;;11.60;99.90;;;;;;5005471;28;20108;-56
2023/12/26 12:35:16;;;;;;;14.07;1.35;;;11.80;99.90;;;;;;5014086;28;20408;-58
2023/12/26 12:37:42;;;;;;;16.67;1.40;;;11.70;99.90;;;;;;5008759;28;20022;-58
2023/12/26 12:40:08;;;;;;;7.80;1.50;;;11.60;99.90;;;;;;5011542;28;20091;-56